Hlavní strana
METAR-TAF:

METAR-TAF

Letiště :

Abidžan, Pobřeží slonoviny

zeměpisná šířka: 05-15N, zeměpisná délka: 003-56W, výška: 7 m

Aktuální stav počasí

Zpráva byla vytvořena před 19 minutami, v 21:00 UTC
Jihojihozápadní vítr 6 kt
Teplota 26°C
Vlhkost vzduchu 89%
Tlak 1012 hPa
Viditelnost 10 km a více
Skoro jasno ve výšce 1200 ft

METAR: DIAP 182100Z 20006KT 9999 FEW012 26/24 Q1012 NOSIG

Čas: 21:19 (21:19 UTC)

Předpověď počasí

Zpráva byla vytvořena před 4 hodinami a 19 minutami, v 17:00 UTC
Předpověď platná od 18 v 18 UTC do 19 v 24 UTC
Jihozápadní vítr 8 kt
Viditelnost 10 km a více
Polojasno ve výšce 1200 ft
Dočasný
od 19 v 04 UTC do 19 v 08 UTC
Viditelnost: 4000 m
Oblačno až skoro zataženo ve výšce 1200 ft
déšť
Dočasný
od 19 v 15 UTC do 19 v 20 UTC
Oblačno až skoro zataženo ve výšce 1200 ft

TAF: DIAP 181700Z 1818/1924 22008KT 9999 SCT012 TEMPO 1904/1908 4000 RA BKN012 TEMPO 1915/1920 BKN012

Stav a předpovědi počasí z více než 4 000 letišť (zprávy METAR a TAF).

Červené a žluté tečky na mapě představují dostupné meteorologické stanice.

Když kurzor umístíte na tečku, zobrazí se název stanice.

Pak kliknutím zobrazíte stav a předpověď počasí.

Chcete-li změnit mapu, kliknutím na zelené tlačítko se znaménkem +mapu přiblížíte, kliknutím na zelené tlačítko se znaménkem – mapu oddálíte a kliknutím na zelené šipky přejdete na sousední mapy.


METAR-TAF: